TAF EHDV
METAR EHDV
EHDV 270725Z AUTO 01026KT 9999 FEW018/// SCT025/// BKN032/// 08/03 Q0988=
EHDV 270655Z AUTO 36026KT 9999 FEW016/// SCT026/// BKN029/// 08/03 Q0987=
EHDV 270625Z AUTO 01024KT 9999 -UP FEW025/// SCT032/// 08/02 Q0987=
EHDV 270555Z AUTO 01022KT 9999 SCT030/// SCT040/// 08/01 Q0987=
EHDV 270525Z AUTO 01023KT 9999 FEW027/// SCT031/// 08/01 Q0987=
WC EHDV
WS EHDV
WV EHDV